Time;durP1;ratioP1;P1;durP2;ratioP2;P2;SDS_P1;SDS_P2;PMS_P1;PMS_P2;Temp;Humidity;BMP_temperature;BMP_pressure;BME280_temperature;BME280_humidity;BME280_pressure;Samples;Min_cycle;Max_cycle;Signal;HPM_P1;HPM_P2
2023/06/23 00:00:49;;;;;;;5.07;4.10;;;;;;;;;;5100323;28;20020;-77
2023/06/23 00:03:15;;;;;;;5.32;4.78;;;;;;;;;;5100577;28;20040;-77
2023/06/23 00:05:41;;;;;;;4.90;4.22;;;;;;;;;;5097842;28;20088;-77
2023/06/23 00:08:07;;;;;;;5.63;4.45;;;;;;;;;;5104589;28;20042;-76
2023/06/23 00:10:34;;;;;;;4.68;4.25;;;;;;;;;;5094646;28;20036;-79
2023/06/23 00:13:02;;;;;;;4.82;4.22;;;;;;;;;;5097642;28;20024;-77
2023/06/23 00:15:28;;;;;;;4.75;4.25;;;;;;;;;;5097305;28;20162;-77
2023/06/23 00:17:55;;;;;;;5.60;4.32;;;;;;;;;;5095933;28;20019;-76
2023/06/23 00:20:22;;;;;;;4.80;4.28;;;;;;;;;;5101025;28;20020;-77
2023/06/23 00:22:48;;;;;;;6.07;4.85;;;;;;;;;;5098652;28;20119;-77
2023/06/23 00:25:14;;;;;;;6.07;4.43;;;;;;;;;;5097625;28;20038;-76
2023/06/23 00:27:41;;;;;;;5.28;4.65;;;;;;;;;;5095023;27;20055;-77
2023/06/23 00:30:08;;;;;;;6.22;3.95;;;;;;;;;;5097519;28;20449;-76
2023/06/23 00:32:34;;;;;;;8.15;4.70;;;;;;;;;;5100257;28;20034;-76
2023/06/23 00:35:00;;;;;;;5.35;4.13;;;;;;;;;;5108969;28;20028;-76
2023/06/23 00:37:30;;;;;;;5.30;4.35;;;;;;;;;;5104233;28;20065;-77
2023/06/23 00:39:58;;;;;;;6.63;4.90;;;;;;;;;;5102523;28;20043;-76
2023/06/23 00:42:24;;;;;;;5.05;4.55;;;;;;;;;;5095868;28;20480;-76
2023/06/23 00:44:51;;;;;;;4.45;4.05;;;;;;;;;;5103103;28;20119;-76
2023/06/23 00:47:18;;;;;;;5.63;4.15;;;;;;;;;;5106693;28;20435;-76
2023/06/23 00:49:45;;;;;;;6.43;4.25;;;;;;;;;;5104676;28;20504;-76
2023/06/23 00:52:11;;;;;;;6.32;3.78;;;;;;;;;;5100865;28;20055;-77
2023/06/23 00:54:38;;;;;;;4.07;3.65;;;;;;;;;;5100996;28;20031;-76
2023/06/23 00:57:04;;;;;;;5.80;4.18;;;;;;;;;;5084943;28;20035;-76
2023/06/23 00:59:31;;;;;;;5.25;3.88;;;;;;;;;;5084121;28;20028;-76
2023/06/23 01:01:58;;;;;;;5.65;3.90;;;;;;;;;;5101955;28;20066;-76
2023/06/23 01:04:25;;;;;;;5.32;3.80;;;;;;;;;;5101180;28;20019;-76
2023/06/23 01:07:09;;;;;;;5.60;4.20;;;;;;;;;;5101887;28;20036;-76
2023/06/23 01:09:44;;;;;;;4.88;4.00;;;;;;;;;;5096243;28;20035;-77
2023/06/23 01:12:29;;;;;;;4.65;4.03;;;;;;;;;;5094331;28;20028;-76
2023/06/23 01:15:15;;;;;;;6.40;4.10;;;;;;;;;;5085199;28;20059;-76
2023/06/23 01:17:46;;;;;;;5.10;4.10;;;;;;;;;;5109206;28;20040;-77
2023/06/23 01:20:24;;;;;;;5.03;4.57;;;;;;;;;;5103461;28;20321;-77
2023/06/23 01:22:50;;;;;;;6.00;4.45;;;;;;;;;;5094897;28;20076;-77
2023/06/23 01:25:19;;;;;;;5.28;4.13;;;;;;;;;;5100075;28;20482;-76
2023/06/23 01:28:03;;;;;;;7.03;4.30;;;;;;;;;;5092630;28;20400;-76
2023/06/23 01:30:31;;;;;;;4.43;4.00;;;;;;;;;;5100228;28;20030;-75
2023/06/23 01:33:02;;;;;;;5.55;4.22;;;;;;;;;;5089773;28;20584;-76
2023/06/23 01:35:30;;;;;;;5.32;4.38;;;;;;;;;;5100045;28;20028;-76
2023/06/23 01:38:02;;;;;;;5.53;4.40;;;;;;;;;;5094879;28;20486;-76
2023/06/23 01:40:28;;;;;;;6.07;4.82;;;;;;;;;;5103406;28;20402;-77
2023/06/23 01:42:59;;;;;;;5.57;4.28;;;;;;;;;;5084720;28;20115;-77
2023/06/23 01:45:29;;;;;;;7.18;4.25;;;;;;;;;;5094511;28;20477;-77
2023/06/23 01:47:57;;;;;;;7.38;4.45;;;;;;;;;;5095286;28;20024;-76
2023/06/23 01:50:23;;;;;;;6.10;4.80;;;;;;;;;;5084472;28;20040;-76
2023/06/23 01:52:50;;;;;;;7.82;4.60;;;;;;;;;;5100390;28;20077;-75
2023/06/23 01:55:17;;;;;;;8.98;4.47;;;;;;;;;;5098316;28;20039;-76
2023/06/23 01:57:45;;;;;;;5.72;4.57;;;;;;;;;;5098135;28;20027;-76
2023/06/23 02:00:13;;;;;;;7.15;4.22;;;;;;;;;;5105394;28;20023;-76
2023/06/23 02:02:43;;;;;;;6.13;4.13;;;;;;;;;;5074598;28;20111;-76
2023/06/23 02:05:11;;;;;;;6.80;4.35;;;;;;;;;;5105385;28;20023;-76
2023/06/23 02:07:38;;;;;;;9.40;4.82;;;;;;;;;;5105822;28;20072;-76
2023/06/23 02:10:06;;;;;;;8.30;4.60;;;;;;;;;;5096761;28;20028;-76
2023/06/23 02:12:33;;;;;;;5.47;4.20;;;;;;;;;;5099239;28;20045;-77
2023/06/23 02:15:00;;;;;;;5.57;4.07;;;;;;;;;;5096777;28;20032;-76
2023/06/23 02:17:26;;;;;;;6.55;4.47;;;;;;;;;;5103965;28;20057;-76
2023/06/23 02:19:54;;;;;;;8.95;4.22;;;;;;;;;;5112182;28;20106;-77
2023/06/23 02:22:23;;;;;;;6.82;4.63;;;;;;;;;;5089851;28;20024;-77
2023/06/23 02:24:50;;;;;;;4.40;4.00;;;;;;;;;;5091218;28;20031;-78
2023/06/23 02:27:17;;;;;;;5.60;4.30;;;;;;;;;;5095068;28;20060;-77
2023/06/23 02:29:43;;;;;;;9.65;4.80;;;;;;;;;;5099747;28;20039;-76
2023/06/23 02:32:17;;;;;;;7.25;4.63;;;;;;;;;;5100141;28;20013;-75
2023/06/23 02:34:46;;;;;;;6.80;4.60;;;;;;;;;;5100803;28;20038;-76
2023/06/23 02:37:16;;;;;;;6.07;4.60;;;;;;;;;;5096836;28;20023;-76
2023/06/23 02:39:46;;;;;;;7.60;4.28;;;;;;;;;;5082417;28;20047;-76
2023/06/23 02:42:14;;;;;;;4.80;3.85;;;;;;;;;;5102094;28;20107;-75
2023/06/23 02:44:42;;;;;;;4.97;4.43;;;;;;;;;;5106358;28;20043;-76
2023/06/23 02:47:17;;;;;;;10.18;5.00;;;;;;;;;;5105719;28;20069;-75
2023/06/23 02:49:44;;;;;;;5.28;4.32;;;;;;;;;;5109741;28;20106;-76
2023/06/23 02:52:11;;;;;;;7.97;4.90;;;;;;;;;;5090861;28;20053;-76
2023/06/23 02:54:39;;;;;;;5.72;4.50;;;;;;;;;;5099467;28;20034;-76
2023/06/23 02:57:07;;;;;;;5.13;4.22;;;;;;;;;;5100237;28;20024;-76
2023/06/23 02:59:35;;;;;;;4.78;4.10;;;;;;;;;;5099486;28;20169;-75
2023/06/23 03:02:01;;;;;;;6.70;4.55;;;;;;;;;;5113682;28;20278;-77
2023/06/23 03:04:30;;;;;;;6.63;5.05;;;;;;;;;;5117546;28;20050;-76
2023/06/23 03:06:56;;;;;;;6.65;4.45;;;;;;;;;;5105607;28;20019;-76
2023/06/23 03:09:22;;;;;;;6.40;4.60;;;;;;;;;;5114521;28;20024;-76
2023/06/23 03:11:48;;;;;;;6.32;4.82;;;;;;;;;;5096279;28;20099;-76
2023/06/23 03:14:14;;;;;;;5.30;4.53;;;;;;;;;;5104937;28;20023;-76
2023/06/23 03:16:48;;;;;;;8.18;4.45;;;;;;;;;;5110922;28;20023;-77
2023/06/23 03:19:27;;;;;;;6.07;4.53;;;;;;;;;;5099487;28;20034;-77
2023/06/23 03:22:04;;;;;;;5.95;5.07;;;;;;;;;;5103615;28;20038;-76
2023/06/23 03:24:32;;;;;;;7.38;4.47;;;;;;;;;;5093233;28;20024;-76
2023/06/23 03:26:59;;;;;;;7.10;4.63;;;;;;;;;;5096804;28;20040;-77
2023/06/23 03:29:27;;;;;;;6.30;4.20;;;;;;;;;;5095425;28;20144;-75
2023/06/23 03:31:57;;;;;;;7.60;4.90;;;;;;;;;;5094415;28;20051;-77
2023/06/23 03:34:23;;;;;;;6.53;4.43;;;;;;;;;;5099852;28;20036;-77
2023/06/23 03:36:50;;;;;;;6.60;4.32;;;;;;;;;;5087584;28;20033;-77
2023/06/23 03:39:21;;;;;;;10.93;4.22;;;;;;;;;;5084977;28;20577;-77
2023/06/23 03:41:48;;;;;;;8.52;5.03;;;;;;;;;;5097924;28;20529;-76
2023/06/23 03:44:23;;;;;;;7.00;4.78;;;;;;;;;;5103682;28;20487;-77
2023/06/23 03:47:04;;;;;;;6.93;4.85;;;;;;;;;;5100209;28;20098;-76
2023/06/23 03:49:34;;;;;;;7.50;4.72;;;;;;;;;;5095351;28;20039;-76
2023/06/23 03:52:02;;;;;;;6.63;4.60;;;;;;;;;;5099563;28;20024;-77
2023/06/23 03:54:29;;;;;;;8.20;4.57;;;;;;;;;;5095887;28;20031;-77
2023/06/23 03:56:56;;;;;;;7.25;4.22;;;;;;;;;;5100871;28;20568;-77
2023/06/23 03:59:24;;;;;;;6.60;5.03;;;;;;;;;;5101439;28;20470;-77
2023/06/23 04:01:51;;;;;;;9.27;5.22;;;;;;;;;;5101695;28;20019;-77
2023/06/23 04:04:18;;;;;;;7.45;4.88;;;;;;;;;;5104831;28;21253;-77
2023/06/23 04:06:45;;;;;;;5.07;4.40;;;;;;;;;;5118022;27;20029;-76
2023/06/23 04:09:12;;;;;;;6.45;4.63;;;;;;;;;;5105931;27;20035;-76
2023/06/23 04:11:39;;;;;;;7.30;4.57;;;;;;;;;;5104935;28;20026;-76
2023/06/23 04:14:06;;;;;;;7.43;4.68;;;;;;;;;;5104081;28;20041;-76
2023/06/23 04:16:34;;;;;;;6.18;4.68;;;;;;;;;;5087361;28;20035;-76
2023/06/23 04:19:01;;;;;;;7.03;4.57;;;;;;;;;;5097022;28;20024;-76
2023/06/23 04:21:29;;;;;;;5.70;4.25;;;;;;;;;;5100412;27;20044;-78
2023/06/23 04:23:56;;;;;;;5.07;3.75;;;;;;;;;;5110581;28;20409;-76
2023/06/23 04:26:22;;;;;;;5.15;4.18;;;;;;;;;;5098645;28;20074;-77
2023/06/23 04:28:49;;;;;;;5.30;4.68;;;;;;;;;;5107723;28;20023;-76
2023/06/23 04:31:16;;;;;;;5.10;4.00;;;;;;;;;;5104728;28;20078;-77
2023/06/23 04:33:42;;;;;;;6.78;4.05;;;;;;;;;;5095326;28;20050;-76
2023/06/23 04:36:13;;;;;;;5.50;3.83;;;;;;;;;;5096680;28;20024;-77
2023/06/23 04:38:41;;;;;;;6.32;3.92;;;;;;;;;;5107053;28;20019;-76
2023/06/23 04:41:08;;;;;;;6.07;4.18;;;;;;;;;;5101210;28;20023;-77
2023/06/23 04:43:37;;;;;;;7.20;4.40;;;;;;;;;;5101560;28;20024;-77
2023/06/23 04:46:07;;;;;;;5.65;4.47;;;;;;;;;;5093215;28;20032;-77
2023/06/23 04:48:38;;;;;;;5.88;3.92;;;;;;;;;;5095853;28;20028;-76
2023/06/23 04:51:07;;;;;;;6.32;4.45;;;;;;;;;;5098295;28;20030;-76
2023/06/23 04:53:53;;;;;;;7.60;4.55;;;;;;;;;;5103475;28;20023;-77
2023/06/23 04:56:21;;;;;;;6.15;4.25;;;;;;;;;;5103925;28;20481;-76
2023/06/23 04:58:50;;;;;;;6.50;4.38;;;;;;;;;;5098198;28;20054;-76
2023/06/23 05:01:16;;;;;;;6.93;4.45;;;;;;;;;;5106592;28;20028;-75
2023/06/23 05:03:43;;;;;;;5.47;4.40;;;;;;;;;;5105060;28;20038;-78
2023/06/23 05:06:11;;;;;;;6.40;4.50;;;;;;;;;;5085873;28;20341;-75
2023/06/23 05:08:37;;;;;;;6.68;4.03;;;;;;;;;;5100943;28;20509;-76
2023/06/23 05:11:05;;;;;;;7.35;4.53;;;;;;;;;;5106443;28;20039;-76
2023/06/23 05:13:32;;;;;;;7.18;3.90;;;;;;;;;;5100310;28;20028;-76
2023/06/23 05:15:59;;;;;;;7.28;4.32;;;;;;;;;;5079590;28;20032;-76
2023/06/23 05:18:25;;;;;;;6.10;4.20;;;;;;;;;;5102652;28;20024;-76
2023/06/23 05:20:53;;;;;;;7.65;4.78;;;;;;;;;;5096230;28;20469;-76
2023/06/23 05:23:20;;;;;;;7.78;4.88;;;;;;;;;;5094049;28;20754;-76
2023/06/23 05:25:47;;;;;;;6.68;4.50;;;;;;;;;;5095692;28;20078;-78
2023/06/23 05:28:15;;;;;;;6.55;4.28;;;;;;;;;;5092499;28;20032;-77
2023/06/23 05:30:42;;;;;;;6.28;4.25;;;;;;;;;;5105932;28;20028;-76
2023/06/23 05:33:09;;;;;;;7.50;4.80;;;;;;;;;;5097286;28;20069;-77
2023/06/23 05:35:37;;;;;;;4.90;4.05;;;;;;;;;;5102473;28;20032;-76
2023/06/23 05:38:04;;;;;;;7.25;4.00;;;;;;;;;;5101810;27;20388;-76
2023/06/23 05:40:30;;;;;;;5.45;3.95;;;;;;;;;;5098128;28;20088;-76
2023/06/23 05:42:56;;;;;;;6.30;4.00;;;;;;;;;;5100759;28;20535;-75
2023/06/23 05:45:22;;;;;;;8.70;4.25;;;;;;;;;;5100035;28;20046;-76
2023/06/23 05:47:54;;;;;;;6.63;3.67;;;;;;;;;;5082008;28;20028;-76
2023/06/23 05:50:25;;;;;;;5.38;3.97;;;;;;;;;;5091808;28;20370;-76
2023/06/23 05:52:56;;;;;;;5.10;3.80;;;;;;;;;;5101960;28;20038;-77
2023/06/23 05:55:23;;;;;;;6.88;3.78;;;;;;;;;;5100609;28;20043;-77
2023/06/23 05:57:51;;;;;;;4.97;4.47;;;;;;;;;;5100592;28;20389;-76
2023/06/23 06:00:19;;;;;;;7.55;3.83;;;;;;;;;;5102029;28;20166;-77
2023/06/23 06:02:46;;;;;;;6.28;3.78;;;;;;;;;;5103997;28;20057;-76
2023/06/23 06:05:17;;;;;;;6.43;3.10;;;;;;;;;;5095124;28;20348;-76
2023/06/23 06:07:44;;;;;;;4.45;3.22;;;;;;;;;;5107614;28;20076;-76
2023/06/23 06:10:10;;;;;;;4.78;3.22;;;;;;;;;;5100729;28;20057;-76
2023/06/23 06:12:37;;;;;;;4.82;3.90;;;;;;;;;;5100686;28;20019;-77
2023/06/23 06:15:04;;;;;;;5.07;4.10;;;;;;;;;;5094256;28;20039;-76
2023/06/23 06:17:31;;;;;;;5.38;3.80;;;;;;;;;;5095340;28;20024;-76
2023/06/23 06:19:59;;;;;;;6.00;3.55;;;;;;;;;;5097399;28;20035;-76
2023/06/23 06:22:26;;;;;;;4.30;3.63;;;;;;;;;;5104176;28;20024;-76
2023/06/23 06:24:53;;;;;;;4.60;2.85;;;;;;;;;;5104340;28;20023;-77
2023/06/23 06:27:21;;;;;;;4.43;2.97;;;;;;;;;;5099628;28;20481;-79
2023/06/23 06:29:48;;;;;;;4.32;3.08;;;;;;;;;;5099649;28;20563;-76
2023/06/23 06:32:15;;;;;;;4.88;2.80;;;;;;;;;;5108174;28;20057;-79
2023/06/23 06:34:42;;;;;;;4.70;2.92;;;;;;;;;;5125548;28;20035;-78
2023/06/23 06:37:09;;;;;;;4.20;3.17;;;;;;;;;;5121078;28;20019;-77
2023/06/23 06:39:36;;;;;;;7.07;3.00;;;;;;;;;;5114996;28;20051;-78
2023/06/23 06:42:02;;;;;;;3.40;2.78;;;;;;;;;;5108007;28;20016;-78
2023/06/23 06:44:28;;;;;;;4.50;3.08;;;;;;;;;;5105136;28;20034;-79
2023/06/23 06:46:55;;;;;;;5.35;2.97;;;;;;;;;;5106818;28;20095;-77
2023/06/23 06:49:23;;;;;;;3.75;2.83;;;;;;;;;;5096039;28;20031;-78
2023/06/23 06:51:50;;;;;;;11.98;3.03;;;;;;;;;;5112382;27;20055;-78
2023/06/23 06:54:16;;;;;;;3.40;2.85;;;;;;;;;;5111380;28;20027;-76
2023/06/23 06:56:43;;;;;;;3.33;2.80;;;;;;;;;;5096608;28;20028;-79
2023/06/23 06:59:09;;;;;;;6.15;2.97;;;;;;;;;;5108350;28;20581;-79
2023/06/23 07:01:36;;;;;;;5.10;3.45;;;;;;;;;;5111202;28;20702;-76
2023/06/23 07:04:04;;;;;;;5.55;3.53;;;;;;;;;;5106451;28;20027;-75
2023/06/23 07:06:31;;;;;;;3.67;3.03;;;;;;;;;;5110694;28;20053;-76
2023/06/23 07:08:57;;;;;;;5.07;3.17;;;;;;;;;;5113383;28;20358;-77
2023/06/23 07:11:23;;;;;;;3.50;3.17;;;;;;;;;;5107064;28;20035;-78
2023/06/23 07:13:49;;;;;;;4.63;3.15;;;;;;;;;;5095901;28;20016;-77
2023/06/23 07:16:15;;;;;;;5.32;2.92;;;;;;;;;;5102669;28;20446;-78
2023/06/23 07:18:41;;;;;;;3.85;3.15;;;;;;;;;;5114072;28;20047;-78
2023/06/23 07:21:09;;;;;;;3.28;2.78;;;;;;;;;;5103201;28;20155;-76
2023/06/23 07:23:37;;;;;;;4.13;2.85;;;;;;;;;;5109724;28;20030;-75
2023/06/23 07:26:03;;;;;;;6.25;2.80;;;;;;;;;;5107575;28;20028;-77
2023/06/23 07:28:29;;;;;;;6.80;2.80;;;;;;;;;;5101530;28;20019;-77
2023/06/23 07:30:55;;;;;;;5.28;3.22;;;;;;;;;;5101262;28;20105;-76
2023/06/23 07:33:22;;;;;;;5.43;2.65;;;;;;;;;;5112049;28;20032;-76
2023/06/23 07:35:48;;;;;;;3.70;2.60;;;;;;;;;;5108240;28;20028;-77
2023/06/23 07:38:14;;;;;;;3.58;3.03;;;;;;;;;;5112646;28;20020;-76
2023/06/23 07:40:40;;;;;;;5.30;3.17;;;;;;;;;;5114400;28;20054;-76
2023/06/23 07:43:06;;;;;;;4.35;2.90;;;;;;;;;;5109497;28;20039;-76
2023/06/23 07:45:32;;;;;;;3.28;2.85;;;;;;;;;;5107710;28;20038;-76
2023/06/23 07:47:58;;;;;;;3.70;2.70;;;;;;;;;;5089593;28;20122;-76
2023/06/23 07:50:26;;;;;;;5.50;3.03;;;;;;;;;;5104215;28;20105;-77
2023/06/23 07:52:55;;;;;;;4.75;2.90;;;;;;;;;;5100686;28;20099;-76
2023/06/23 07:55:21;;;;;;;4.03;2.60;;;;;;;;;;5102913;28;20122;-77
2023/06/23 07:57:51;;;;;;;4.05;3.00;;;;;;;;;;5100906;28;20093;-76
2023/06/23 08:00:18;;;;;;;5.28;2.85;;;;;;;;;;5112818;28;20016;-77
2023/06/23 08:02:44;;;;;;;3.78;2.70;;;;;;;;;;5105969;28;20544;-78
2023/06/23 08:05:10;;;;;;;4.18;2.30;;;;;;;;;;5113804;28;20380;-75
2023/06/23 08:07:37;;;;;;;3.10;2.67;;;;;;;;;;5081721;28;20528;-77
2023/06/23 08:10:03;;;;;;;3.63;2.33;;;;;;;;;;5105354;28;20020;-77
2023/06/23 08:12:29;;;;;;;3.47;3.03;;;;;;;;;;5090510;28;20054;-76
2023/06/23 08:14:55;;;;;;;4.88;2.63;;;;;;;;;;5107829;28;20031;-77
2023/06/23 08:17:21;;;;;;;5.47;2.75;;;;;;;;;;5104585;28;20043;-77
2023/06/23 08:19:48;;;;;;;4.13;2.63;;;;;;;;;;5105617;28;20486;-78
2023/06/23 08:22:14;;;;;;;6.78;3.33;;;;;;;;;;5104070;28;20027;-78
2023/06/23 08:24:40;;;;;;;4.85;3.00;;;;;;;;;;5110939;28;20028;-76
2023/06/23 08:27:06;;;;;;;3.78;3.05;;;;;;;;;;5103369;28;20095;-78
2023/06/23 08:29:33;;;;;;;3.75;3.03;;;;;;;;;;5104315;28;20102;-78
2023/06/23 08:31:59;;;;;;;3.58;2.78;;;;;;;;;;5111749;28;20050;-77
2023/06/23 08:34:26;;;;;;;8.73;2.97;;;;;;;;;;5097251;28;20054;-78
2023/06/23 08:36:52;;;;;;;4.18;2.90;;;;;;;;;;5098506;28;20028;-77
2023/06/23 08:39:18;;;;;;;4.65;2.67;;;;;;;;;;5111285;28;20044;-78
2023/06/23 08:41:45;;;;;;;4.72;3.25;;;;;;;;;;5101010;28;20026;-78
2023/06/23 08:44:14;;;;;;;3.70;2.80;;;;;;;;;;5107663;28;20027;-76
2023/06/23 08:46:41;;;;;;;3.60;2.70;;;;;;;;;;5098299;28;20024;-77
2023/06/23 08:49:09;;;;;;;5.20;3.10;;;;;;;;;;5103091;28;20524;-78
2023/06/23 08:51:35;;;;;;;3.95;2.92;;;;;;;;;;5109110;28;20024;-77
2023/06/23 08:54:01;;;;;;;7.13;3.60;;;;;;;;;;5114434;28;20034;-77
2023/06/23 08:56:27;;;;;;;4.80;3.38;;;;;;;;;;5103715;28;20036;-78
2023/06/23 08:58:54;;;;;;;6.47;3.30;;;;;;;;;;5107923;28;20020;-79
2023/06/23 09:01:20;;;;;;;5.10;2.70;;;;;;;;;;5103481;28;20044;-77
2023/06/23 09:03:46;;;;;;;3.35;2.58;;;;;;;;;;5101821;28;20028;-77
2023/06/23 09:06:12;;;;;;;5.93;3.55;;;;;;;;;;5104427;28;20768;-78
2023/06/23 09:08:39;;;;;;;8.35;2.83;;;;;;;;;;5108284;28;20077;-78
2023/06/23 09:11:05;;;;;;;5.30;3.78;;;;;;;;;;5102263;28;20043;-78
2023/06/23 09:13:37;;;;;;;3.30;2.58;;;;;;;;;;5105360;28;20366;-79
2023/06/23 09:16:03;;;;;;;6.20;3.65;;;;;;;;;;5110788;28;20028;-79
2023/06/23 09:18:35;;;;;;;4.28;2.70;;;;;;;;;;5096498;28;20343;-77
2023/06/23 09:21:03;;;;;;;6.35;3.45;;;;;;;;;;5106816;28;20605;-79
2023/06/23 09:23:31;;;;;;;3.03;2.47;;;;;;;;;;5106216;28;20050;-78
2023/06/23 09:25:57;;;;;;;2.50;2.10;;;;;;;;;;5113833;28;20041;-77
2023/06/23 09:28:24;;;;;;;6.18;3.25;;;;;;;;;;5082256;28;20758;-78
2023/06/23 09:30:51;;;;;;;4.00;2.50;;;;;;;;;;5091647;28;20015;-78
2023/06/23 09:33:18;;;;;;;3.10;2.40;;;;;;;;;;5101716;28;20036;-78
2023/06/23 09:35:48;;;;;;;5.90;2.15;;;;;;;;;;5098643;28;20038;-77
2023/06/23 09:38:17;;;;;;;2.83;2.20;;;;;;;;;;5091986;28;20557;-78
2023/06/23 09:40:43;;;;;;;2.85;2.28;;;;;;;;;;5110953;28;20051;-76
2023/06/23 09:43:09;;;;;;;2.60;2.00;;;;;;;;;;5102328;28;20046;-79
2023/06/23 09:45:35;;;;;;;2.83;1.90;;;;;;;;;;5093982;28;20431;-79
2023/06/23 09:48:01;;;;;;;3.70;2.10;;;;;;;;;;5105606;28;20215;-78
2023/06/23 09:50:27;;;;;;;1.98;1.80;;;;;;;;;;5098282;28;20024;-79
2023/06/23 09:53:01;;;;;;;2.58;1.98;;;;;;;;;;5104295;28;20032;-78
2023/06/23 09:55:30;;;;;;;3.08;1.80;;;;;;;;;;5111939;28;20027;-79
2023/06/23 09:57:56;;;;;;;2.40;2.20;;;;;;;;;;5122222;28;20027;-80
2023/06/23 10:00:29;;;;;;;3.40;1.80;;;;;;;;;;5126935;28;20035;-80
2023/06/23 10:02:58;;;;;;;2.30;1.60;;;;;;;;;;5124424;28;20020;-80
2023/06/23 10:05:25;;;;;;;2.97;1.80;;;;;;;;;;5104876;28;20019;-78
2023/06/23 10:08:05;;;;;;;1.90;1.40;;;;;;;;;;5098563;28;21726;-78
2023/06/23 10:10:32;;;;;;;1.83;1.65;;;;;;;;;;5107117;28;20043;-78
2023/06/23 10:12:58;;;;;;;2.17;1.98;;;;;;;;;;5097704;28;20198;-77
2023/06/23 10:15:24;;;;;;;1.50;1.40;;;;;;;;;;5105241;28;20508;-79
2023/06/23 10:17:51;;;;;;;2.28;1.45;;;;;;;;;;5099974;28;20180;-78
2023/06/23 10:20:17;;;;;;;1.90;1.80;;;;;;;;;;5112172;28;20024;-80
2023/06/23 10:22:45;;;;;;;1.50;1.40;;;;;;;;;;5097439;28;20466;-81
2023/06/23 10:25:11;;;;;;;2.80;1.50;;;;;;;;;;5098738;28;20052;-80
2023/06/23 10:27:38;;;;;;;2.03;1.50;;;;;;;;;;5108032;28;20047;-79
2023/06/23 10:30:04;;;;;;;1.58;1.48;;;;;;;;;;5081960;28;20486;-81
2023/06/23 10:32:32;;;;;;;2.47;1.50;;;;;;;;;;5100368;28;20028;-81
2023/06/23 10:35:00;;;;;;;1.45;1.35;;;;;;;;;;5097788;28;20043;-79
2023/06/23 10:37:29;;;;;;;1.50;1.40;;;;;;;;;;5093641;27;20082;-79
2023/06/23 10:40:01;;;;;;;1.60;1.50;;;;;;;;;;5100691;28;20568;-79
2023/06/23 10:42:28;;;;;;;1.58;1.48;;;;;;;;;;5099717;28;20027;-80
2023/06/23 10:44:55;;;;;;;2.00;1.50;;;;;;;;;;5091772;28;20096;-79
2023/06/23 10:47:21;;;;;;;1.67;1.55;;;;;;;;;;5106648;28;20027;-79
2023/06/23 10:49:47;;;;;;;1.50;1.40;;;;;;;;;;5098376;28;20445;-79
2023/06/23 10:52:14;;;;;;;2.97;1.40;;;;;;;;;;5097561;28;20078;-78
2023/06/23 10:54:42;;;;;;;2.08;1.52;;;;;;;;;;5102937;28;20066;-79
2023/06/23 10:57:10;;;;;;;2.00;1.67;;;;;;;;;;5097139;28;20474;-80
2023/06/23 10:59:36;;;;;;;1.48;1.38;;;;;;;;;;5095378;28;20076;-80
2023/06/23 11:02:07;;;;;;;2.47;1.65;;;;;;;;;;5105415;28;20047;-79
2023/06/23 11:04:38;;;;;;;1.95;1.40;;;;;;;;;;5096083;28;20099;-78
2023/06/23 11:07:06;;;;;;;1.80;1.50;;;;;;;;;;5092183;28;20231;-80
2023/06/23 11:09:54;;;;;;;1.60;1.50;;;;;;;;;;5108783;28;20027;-82
2023/06/23 11:12:29;;;;;;;1.63;1.50;;;;;;;;;;5099853;28;20042;-80
2023/06/23 11:15:04;;;;;;;1.50;1.40;;;;;;;;;;5103738;28;20096;-80
2023/06/23 11:17:30;;;;;;;1.60;1.50;;;;;;;;;;5080525;28;20446;-81
2023/06/23 11:19:58;;;;;;;1.50;1.40;;;;;;;;;;5095700;28;20020;-80
2023/06/23 11:22:24;;;;;;;1.40;1.30;;;;;;;;;;5101936;28;20027;-78
2023/06/23 11:24:56;;;;;;;1.50;1.40;;;;;;;;;;5089827;28;20078;-80
2023/06/23 11:27:22;;;;;;;1.85;1.52;;;;;;;;;;5100142;28;20032;-79
2023/06/23 11:30:07;;;;;;;1.70;1.60;;;;;;;;;;5096347;28;20110;-78
2023/06/23 11:32:33;;;;;;;1.70;1.60;;;;;;;;;;5106559;28;20027;-79
2023/06/23 11:35:01;;;;;;;1.80;1.70;;;;;;;;;;5103492;28;20043;-80
2023/06/23 11:37:30;;;;;;;1.55;1.45;;;;;;;;;;5081951;28;20020;-80
2023/06/23 11:39:57;;;;;;;1.70;1.60;;;;;;;;;;5094469;28;20421;-79
2023/06/23 11:42:23;;;;;;;1.75;1.65;;;;;;;;;;5108642;28;20019;-80
2023/06/23 11:44:49;;;;;;;1.67;1.58;;;;;;;;;;5106065;28;20028;-80
2023/06/23 11:47:17;;;;;;;2.25;1.65;;;;;;;;;;5092510;28;20058;-77
2023/06/23 11:49:43;;;;;;;1.75;1.65;;;;;;;;;;5104285;28;20075;-79
2023/06/23 11:52:10;;;;;;;1.85;1.73;;;;;;;;;;5093723;28;20027;-75
2023/06/23 11:54:37;;;;;;;1.88;1.60;;;;;;;;;;5101861;28;20072;-77
2023/06/23 11:57:03;;;;;;;2.33;1.75;;;;;;;;;;5089903;28;20435;-78
2023/06/23 11:59:50;;;;;;;;;;;;;;;;;;;;;
2023/06/23 12:02:26;;;;;;;2.17;1.73;;;;;;;;;;5114426;28;20103;-78
2023/06/23 12:04:52;;;;;;;1.85;1.75;;;;;;;;;;5109628;28;20012;-78
2023/06/23 12:07:20;;;;;;;2.05;1.92;;;;;;;;;;5100773;28;20028;-80
2023/06/23 12:09:46;;;;;;;2.10;1.85;;;;;;;;;;5092644;28;20496;-79
2023/06/23 12:12:14;;;;;;;1.83;1.70;;;;;;;;;;5100820;28;20028;-81
2023/06/23 12:14:42;;;;;;;2.25;1.77;;;;;;;;;;5097294;28;20073;-80
2023/06/23 12:17:09;;;;;;;1.70;1.60;;;;;;;;;;5096728;28;20546;-80
2023/06/23 12:19:35;;;;;;;1.80;1.70;;;;;;;;;;5097541;28;20011;-79
2023/06/23 12:22:02;;;;;;;2.20;2.00;;;;;;;;;;5105340;28;20024;-78
2023/06/23 12:24:32;;;;;;;2.10;1.90;;;;;;;;;;5095773;28;20508;-79
2023/06/23 12:26:59;;;;;;;2.20;2.00;;;;;;;;;;5103646;28;20077;-80
2023/06/23 12:29:25;;;;;;;2.20;2.00;;;;;;;;;;5103043;28;20027;-79
2023/06/23 12:31:59;;;;;;;2.35;2.10;;;;;;;;;;5095793;28;20501;-78
2023/06/23 12:34:32;;;;;;;2.08;1.90;;;;;;;;;;5095340;28;20049;-78
2023/06/23 12:37:02;;;;;;;2.13;1.92;;;;;;;;;;5102866;28;20028;-79
2023/06/23 12:39:32;;;;;;;2.10;1.88;;;;;;;;;;5103503;28;20052;-80
2023/06/23 12:41:58;;;;;;;2.08;1.70;;;;;;;;;;5099733;28;20015;-80
2023/06/23 12:44:28;;;;;;;2.80;1.95;;;;;;;;;;5096691;28;20048;-79
2023/06/23 12:46:54;;;;;;;2.20;2.00;;;;;;;;;;5104391;28;20099;-81
2023/06/23 12:49:27;;;;;;;2.20;2.00;;;;;;;;;;5092541;28;20027;-80
2023/06/23 12:51:53;;;;;;;3.05;2.45;;;;;;;;;;5097204;28;20035;-79
2023/06/23 12:54:19;;;;;;;2.20;2.00;;;;;;;;;;5102091;28;20024;-79
2023/06/23 12:56:45;;;;;;;4.07;2.28;;;;;;;;;;5103761;28;20032;-79
2023/06/23 12:59:12;;;;;;;5.40;2.08;;;;;;;;;;5104139;28;20023;-80
2023/06/23 13:01:38;;;;;;;2.60;2.00;;;;;;;;;;5094430;28;20031;-79
2023/06/23 13:04:04;;;;;;;2.83;1.90;;;;;;;;;;5097187;28;20378;-80
2023/06/23 13:06:30;;;;;;;2.00;1.80;;;;;;;;;;5103754;28;20024;-80
2023/06/23 13:08:56;;;;;;;2.40;2.20;;;;;;;;;;5114322;28;20038;-80
2023/06/23 13:11:23;;;;;;;2.25;2.05;;;;;;;;;;5102449;28;20024;-79
2023/06/23 13:13:49;;;;;;;2.65;2.17;;;;;;;;;;5116431;28;20030;-81
2023/06/23 13:16:17;;;;;;;2.10;2.00;;;;;;;;;;5122069;28;20027;-79
2023/06/23 13:18:43;;;;;;;2.75;1.70;;;;;;;;;;5107751;28;20043;-79
2023/06/23 13:21:09;;;;;;;4.30;1.88;;;;;;;;;;5099533;28;20032;-80
2023/06/23 13:23:35;;;;;;;2.78;2.17;;;;;;;;;;5113242;28;20027;-80
2023/06/23 13:26:01;;;;;;;2.17;1.90;;;;;;;;;;5097280;28;20024;-80
2023/06/23 13:28:27;;;;;;;2.50;2.00;;;;;;;;;;5096507;28;20115;-82
2023/06/23 13:30:53;;;;;;;2.35;2.15;;;;;;;;;;5100174;28;20707;-80
2023/06/23 13:33:22;;;;;;;2.10;1.90;;;;;;;;;;5100548;28;20034;-79
2023/06/23 13:35:48;;;;;;;3.33;2.00;;;;;;;;;;5108681;28;20024;-78
2023/06/23 13:38:14;;;;;;;2.20;2.00;;;;;;;;;;5098197;28;20031;-81
2023/06/23 13:40:40;;;;;;;2.55;2.10;;;;;;;;;;5103402;28;20032;-80
2023/06/23 13:43:07;;;;;;;2.10;1.80;;;;;;;;;;5102688;28;20063;-79
2023/06/23 13:45:33;;;;;;;3.53;1.92;;;;;;;;;;5101975;28;20055;-82
2023/06/23 13:47:59;;;;;;;2.53;2.10;;;;;;;;;;5101036;28;20034;-80
2023/06/23 13:50:26;;;;;;;2.58;2.38;;;;;;;;;;5113163;27;20020;-81
2023/06/23 13:52:52;;;;;;;3.22;2.63;;;;;;;;;;5083223;28;20557;-81
2023/06/23 13:55:18;;;;;;;3.17;2.20;;;;;;;;;;5101544;28;20043;-81
2023/06/23 13:57:44;;;;;;;3.58;1.95;;;;;;;;;;5094538;28;20058;-80
2023/06/23 14:00:10;;;;;;;2.13;1.90;;;;;;;;;;5095248;28;20047;-79
2023/06/23 14:02:37;;;;;;;3.30;2.13;;;;;;;;;;5096663;28;20069;-80
2023/06/23 14:05:03;;;;;;;2.50;1.95;;;;;;;;;;5102329;28;20039;-77
2023/06/23 14:07:29;;;;;;;3.03;2.00;;;;;;;;;;5088545;28;20040;-79
2023/06/23 14:09:56;;;;;;;3.80;2.00;;;;;;;;;;5100182;28;20028;-79
2023/06/23 14:12:22;;;;;;;2.10;1.80;;;;;;;;;;5105657;28;20031;-83
2023/06/23 14:14:48;;;;;;;2.00;1.65;;;;;;;;;;5100290;28;20039;-80
2023/06/23 14:17:15;;;;;;;3.42;1.90;;;;;;;;;;5101234;28;20414;-78
2023/06/23 14:19:41;;;;;;;3.05;2.00;;;;;;;;;;5096515;28;20089;-79
2023/06/23 14:22:07;;;;;;;3.60;2.20;;;;;;;;;;5094968;28;20514;-79
2023/06/23 14:24:34;;;;;;;4.35;2.00;;;;;;;;;;5086022;28;20485;-78
2023/06/23 14:27:00;;;;;;;4.50;2.33;;;;;;;;;;5091165;28;20063;-79
2023/06/23 14:29:26;;;;;;;2.63;2.30;;;;;;;;;;5097665;28;20031;-80
2023/06/23 14:31:53;;;;;;;2.78;2.28;;;;;;;;;;5090017;28;20035;-79
2023/06/23 14:34:19;;;;;;;3.55;2.33;;;;;;;;;;5095009;28;20401;-78
2023/06/23 14:36:45;;;;;;;2.40;2.00;;;;;;;;;;5099377;28;20035;-78
2023/06/23 14:39:12;;;;;;;3.00;2.22;;;;;;;;;;5098736;28;20048;-79
2023/06/23 14:41:39;;;;;;;2.63;2.10;;;;;;;;;;5096154;28;20114;-78
2023/06/23 14:44:06;;;;;;;3.58;3.25;;;;;;;;;;5081189;28;20193;-79
2023/06/23 14:46:32;;;;;;;5.25;2.42;;;;;;;;;;5096085;28;20028;-78